sensor_id;sensor_type;location;lat;lon;timestamp;P1;durP1;ratioP1;P2;durP2;ratioP2
64520;SDS011;50896;46.714;17.322;2023-11-21T00:02:26;23.85;;;16.00;;
64520;SDS011;50896;46.714;17.322;2023-11-21T00:04:54;25.63;;;16.58;;
64520;SDS011;50896;46.714;17.322;2023-11-21T00:07:21;25.75;;;16.60;;
64520;SDS011;50896;46.714;17.322;2023-11-21T00:09:48;25.85;;;16.60;;
64520;SDS011;50896;46.714;17.322;2023-11-21T00:12:15;24.35;;;16.08;;
64520;SDS011;50896;46.714;17.322;2023-11-21T00:14:42;26.40;;;16.85;;
64520;SDS011;50896;46.714;17.322;2023-11-21T00:17:09;26.85;;;17.00;;
64520;SDS011;50896;46.714;17.322;2023-11-21T00:19:36;25.25;;;16.65;;
64520;SDS011;50896;46.714;17.322;2023-11-21T00:22:03;23.50;;;16.33;;
64520;SDS011;50896;46.714;17.322;2023-11-21T00:24:30;24.27;;;16.15;;
64520;SDS011;50896;46.714;17.322;2023-11-21T00:26:58;26.27;;;16.80;;
64520;SDS011;50896;46.714;17.322;2023-11-21T00:29:25;23.65;;;15.70;;
64520;SDS011;50896;46.714;17.322;2023-11-21T00:31:52;24.58;;;16.80;;
64520;SDS011;50896;46.714;17.322;2023-11-21T00:34:20;26.67;;;17.67;;
64520;SDS011;50896;46.714;17.322;2023-11-21T00:36:46;25.35;;;17.10;;
64520;SDS011;50896;46.714;17.322;2023-11-21T00:39:13;28.55;;;17.58;;
64520;SDS011;50896;46.714;17.322;2023-11-21T00:41:40;27.98;;;17.33;;
64520;SDS011;50896;46.714;17.322;2023-11-21T00:44:08;24.40;;;16.10;;
64520;SDS011;50896;46.714;17.322;2023-11-21T00:46:35;27.58;;;16.98;;
64520;SDS011;50896;46.714;17.322;2023-11-21T00:49:02;29.42;;;17.20;;
64520;SDS011;50896;46.714;17.322;2023-11-21T00:51:30;26.42;;;17.58;;
64520;SDS011;50896;46.714;17.322;2023-11-21T00:53:58;25.60;;;17.33;;
64520;SDS011;50896;46.714;17.322;2023-11-21T00:56:25;27.27;;;17.75;;
64520;SDS011;50896;46.714;17.322;2023-11-21T00:58:52;25.27;;;16.98;;
64520;SDS011;50896;46.714;17.322;2023-11-21T01:01:19;25.40;;;17.30;;
64520;SDS011;50896;46.714;17.322;2023-11-21T01:03:48;26.17;;;17.55;;
64520;SDS011;50896;46.714;17.322;2023-11-21T01:06:15;29.02;;;17.23;;
64520;SDS011;50896;46.714;17.322;2023-11-21T01:08:43;25.75;;;17.90;;
64520;SDS011;50896;46.714;17.322;2023-11-21T01:11:11;28.70;;;18.25;;
64520;SDS011;50896;46.714;17.322;2023-11-21T01:13:42;28.58;;;17.85;;
64520;SDS011;50896;46.714;17.322;2023-11-21T01:16:09;31.27;;;18.70;;
64520;SDS011;50896;46.714;17.322;2023-11-21T01:18:36;28.45;;;18.58;;
64520;SDS011;50896;46.714;17.322;2023-11-21T01:21:03;25.60;;;17.85;;
64520;SDS011;50896;46.714;17.322;2023-11-21T01:23:30;26.65;;;17.85;;
64520;SDS011;50896;46.714;17.322;2023-11-21T01:25:57;24.10;;;18.17;;
64520;SDS011;50896;46.714;17.322;2023-11-21T01:28:24;31.92;;;20.60;;
64520;SDS011;50896;46.714;17.322;2023-11-21T01:30:51;28.50;;;18.98;;
64520;SDS011;50896;46.714;17.322;2023-11-21T01:33:18;29.55;;;19.20;;
64520;SDS011;50896;46.714;17.322;2023-11-21T01:35:45;30.92;;;19.23;;
64520;SDS011;50896;46.714;17.322;2023-11-21T01:38:13;31.25;;;18.92;;
64520;SDS011;50896;46.714;17.322;2023-11-21T01:40:41;28.75;;;18.55;;
64520;SDS011;50896;46.714;17.322;2023-11-21T01:43:08;27.70;;;19.02;;
64520;SDS011;50896;46.714;17.322;2023-11-21T01:45:35;27.25;;;18.50;;
64520;SDS011;50896;46.714;17.322;2023-11-21T01:48:02;24.98;;;17.85;;
64520;SDS011;50896;46.714;17.322;2023-11-21T01:50:30;25.77;;;17.95;;
64520;SDS011;50896;46.714;17.322;2023-11-21T01:52:57;24.92;;;16.92;;
64520;SDS011;50896;46.714;17.322;2023-11-21T01:55:25;26.63;;;16.02;;
64520;SDS011;50896;46.714;17.322;2023-11-21T02:00:23;23.95;;;16.98;;
64520;SDS011;50896;46.714;17.322;2023-11-21T02:02:50;24.83;;;15.88;;
64520;SDS011;50896;46.714;17.322;2023-11-21T02:05:18;27.48;;;15.85;;
64520;SDS011;50896;46.714;17.322;2023-11-21T02:07:46;25.75;;;16.90;;
64520;SDS011;50896;46.714;17.322;2023-11-21T02:10:15;24.60;;;16.67;;
64520;SDS011;50896;46.714;17.322;2023-11-21T02:12:42;25.95;;;16.83;;
64520;SDS011;50896;46.714;17.322;2023-11-21T02:15:13;27.40;;;15.98;;
64520;SDS011;50896;46.714;17.322;2023-11-21T02:17:53;24.85;;;15.60;;
64520;SDS011;50896;46.714;17.322;2023-11-21T02:20:21;22.63;;;15.27;;
64520;SDS011;50896;46.714;17.322;2023-11-21T02:22:52;24.48;;;16.63;;
64520;SDS011;50896;46.714;17.322;2023-11-21T02:25:28;25.27;;;15.88;;
64520;SDS011;50896;46.714;17.322;2023-11-21T02:27:57;27.70;;;15.90;;
64520;SDS011;50896;46.714;17.322;2023-11-21T02:30:25;24.17;;;15.95;;
64520;SDS011;50896;46.714;17.322;2023-11-21T02:32:54;21.83;;;15.23;;
64520;SDS011;50896;46.714;17.322;2023-11-21T02:37:54;21.42;;;15.20;;
64520;SDS011;50896;46.714;17.322;2023-11-21T02:40:21;25.25;;;15.65;;
64520;SDS011;50896;46.714;17.322;2023-11-21T02:42:51;24.27;;;15.48;;
64520;SDS011;50896;46.714;17.322;2023-11-21T02:45:19;26.35;;;16.05;;
64520;SDS011;50896;46.714;17.322;2023-11-21T02:47:48;22.65;;;15.27;;
64520;SDS011;50896;46.714;17.322;2023-11-21T02:50:20;25.58;;;16.45;;
64520;SDS011;50896;46.714;17.322;2023-11-21T02:52:50;23.00;;;16.20;;
64520;SDS011;50896;46.714;17.322;2023-11-21T02:55:19;22.70;;;15.35;;
64520;SDS011;50896;46.714;17.322;2023-11-21T02:57:46;26.25;;;15.55;;
64520;SDS011;50896;46.714;17.322;2023-11-21T03:00:13;23.85;;;15.32;;
64520;SDS011;50896;46.714;17.322;2023-11-21T03:02:42;24.02;;;15.65;;
64520;SDS011;50896;46.714;17.322;2023-11-21T03:05:10;21.65;;;15.02;;
64520;SDS011;50896;46.714;17.322;2023-11-21T03:07:37;23.08;;;15.77;;
64520;SDS011;50896;46.714;17.322;2023-11-21T03:10:05;23.55;;;16.13;;
64520;SDS011;50896;46.714;17.322;2023-11-21T03:12:38;23.67;;;15.52;;
64520;SDS011;50896;46.714;17.322;2023-11-21T03:15:06;24.77;;;17.20;;
64520;SDS011;50896;46.714;17.322;2023-11-21T03:17:33;24.63;;;15.68;;
64520;SDS011;50896;46.714;17.322;2023-11-21T03:20:02;25.88;;;15.77;;
64520;SDS011;50896;46.714;17.322;2023-11-21T03:22:30;27.13;;;17.38;;
64520;SDS011;50896;46.714;17.322;2023-11-21T03:24:57;22.23;;;16.10;;
64520;SDS011;50896;46.714;17.322;2023-11-21T03:27:26;24.80;;;17.08;;
64520;SDS011;50896;46.714;17.322;2023-11-21T03:29:52;23.23;;;16.00;;
64520;SDS011;50896;46.714;17.322;2023-11-21T03:32:21;23.30;;;16.95;;
64520;SDS011;50896;46.714;17.322;2023-11-21T03:34:55;24.10;;;16.77;;
64520;SDS011;50896;46.714;17.322;2023-11-21T03:37:25;24.83;;;16.42;;
64520;SDS011;50896;46.714;17.322;2023-11-21T03:39:55;23.95;;;16.52;;
64520;SDS011;50896;46.714;17.322;2023-11-21T03:42:23;21.55;;;15.40;;
64520;SDS011;50896;46.714;17.322;2023-11-21T03:44:53;23.08;;;16.23;;
64520;SDS011;50896;46.714;17.322;2023-11-21T03:47:21;26.77;;;16.65;;
64520;SDS011;50896;46.714;17.322;2023-11-21T03:49:48;23.90;;;16.42;;
64520;SDS011;50896;46.714;17.322;2023-11-21T03:52:15;24.05;;;17.10;;
64520;SDS011;50896;46.714;17.322;2023-11-21T03:54:43;27.00;;;17.30;;
64520;SDS011;50896;46.714;17.322;2023-11-21T03:57:10;25.20;;;17.02;;
64520;SDS011;50896;46.714;17.322;2023-11-21T03:59:41;24.65;;;16.05;;
64520;SDS011;50896;46.714;17.322;2023-11-21T04:02:09;24.98;;;16.58;;
64520;SDS011;50896;46.714;17.322;2023-11-21T04:04:36;21.73;;;15.95;;
64520;SDS011;50896;46.714;17.322;2023-11-21T04:07:03;21.88;;;14.68;;
64520;SDS011;50896;46.714;17.322;2023-11-21T04:09:31;18.17;;;13.70;;
64520;SDS011;50896;46.714;17.322;2023-11-21T04:11:58;21.15;;;13.38;;
64520;SDS011;50896;46.714;17.322;2023-11-21T04:14:25;21.02;;;12.73;;
64520;SDS011;50896;46.714;17.322;2023-11-21T04:16:52;23.30;;;13.90;;
64520;SDS011;50896;46.714;17.322;2023-11-21T04:19:20;21.08;;;13.65;;
64520;SDS011;50896;46.714;17.322;2023-11-21T04:21:47;19.38;;;13.15;;
64520;SDS011;50896;46.714;17.322;2023-11-21T04:24:14;16.35;;;12.38;;
64520;SDS011;50896;46.714;17.322;2023-11-21T04:26:41;20.60;;;13.77;;
64520;SDS011;50896;46.714;17.322;2023-11-21T04:29:08;21.50;;;14.77;;
64520;SDS011;50896;46.714;17.322;2023-11-21T04:31:35;22.48;;;14.82;;
64520;SDS011;50896;46.714;17.322;2023-11-21T04:34:02;21.13;;;14.00;;
64520;SDS011;50896;46.714;17.322;2023-11-21T04:36:30;21.83;;;15.10;;
64520;SDS011;50896;46.714;17.322;2023-11-21T04:38:57;22.75;;;14.18;;
64520;SDS011;50896;46.714;17.322;2023-11-21T04:41:24;21.80;;;13.40;;
64520;SDS011;50896;46.714;17.322;2023-11-21T04:43:51;21.48;;;14.52;;
64520;SDS011;50896;46.714;17.322;2023-11-21T04:46:18;18.95;;;14.85;;
64520;SDS011;50896;46.714;17.322;2023-11-21T04:48:45;20.42;;;15.23;;
64520;SDS011;50896;46.714;17.322;2023-11-21T04:51:12;20.63;;;14.52;;
64520;SDS011;50896;46.714;17.322;2023-11-21T04:53:39;21.65;;;15.27;;
64520;SDS011;50896;46.714;17.322;2023-11-21T04:56:06;19.77;;;13.32;;
64520;SDS011;50896;46.714;17.322;2023-11-21T04:58:33;15.57;;;11.80;;
64520;SDS011;50896;46.714;17.322;2023-11-21T05:01:00;15.68;;;10.52;;
64520;SDS011;50896;46.714;17.322;2023-11-21T05:03:29;14.60;;;10.98;;
64520;SDS011;50896;46.714;17.322;2023-11-21T05:05:56;19.67;;;11.02;;
64520;SDS011;50896;46.714;17.322;2023-11-21T05:08:23;13.35;;;8.85;;
64520;SDS011;50896;46.714;17.322;2023-11-21T05:10:50;14.57;;;8.73;;
64520;SDS011;50896;46.714;17.322;2023-11-21T05:13:18;12.60;;;7.85;;
64520;SDS011;50896;46.714;17.322;2023-11-21T05:15:46;11.75;;;7.10;;
64520;SDS011;50896;46.714;17.322;2023-11-21T05:18:13;11.23;;;5.03;;
64520;SDS011;50896;46.714;17.322;2023-11-21T05:20:41;5.78;;;2.97;;
64520;SDS011;50896;46.714;17.322;2023-11-21T05:23:08;7.45;;;2.20;;
64520;SDS011;50896;46.714;17.322;2023-11-21T05:25:35;6.88;;;2.38;;
64520;SDS011;50896;46.714;17.322;2023-11-21T05:28:06;6.22;;;2.38;;
64520;SDS011;50896;46.714;17.322;2023-11-21T05:30:33;10.32;;;4.50;;
64520;SDS011;50896;46.714;17.322;2023-11-21T05:33:00;10.95;;;5.65;;
64520;SDS011;50896;46.714;17.322;2023-11-21T05:35:27;16.98;;;11.25;;
64520;SDS011;50896;46.714;17.322;2023-11-21T05:37:54;15.40;;;11.55;;
64520;SDS011;50896;46.714;17.322;2023-11-21T05:40:21;21.60;;;11.48;;
64520;SDS011;50896;46.714;17.322;2023-11-21T05:42:51;16.70;;;10.60;;
64520;SDS011;50896;46.714;17.322;2023-11-21T05:45:18;15.70;;;9.33;;
64520;SDS011;50896;46.714;17.322;2023-11-21T05:47:45;14.02;;;9.00;;
64520;SDS011;50896;46.714;17.322;2023-11-21T05:50:15;13.98;;;9.38;;
64520;SDS011;50896;46.714;17.322;2023-11-21T05:52:43;14.23;;;9.88;;
64520;SDS011;50896;46.714;17.322;2023-11-21T05:55:11;16.33;;;10.85;;
64520;SDS011;50896;46.714;17.322;2023-11-21T05:57:40;15.27;;;11.15;;
64520;SDS011;50896;46.714;17.322;2023-11-21T06:00:11;19.48;;;12.77;;
64520;SDS011;50896;46.714;17.322;2023-11-21T06:02:52;17.50;;;12.95;;
64520;SDS011;50896;46.714;17.322;2023-11-21T06:05:24;20.52;;;13.15;;
64520;SDS011;50896;46.714;17.322;2023-11-21T06:07:53;18.60;;;12.23;;
64520;SDS011;50896;46.714;17.322;2023-11-21T06:10:25;15.98;;;10.00;;
64520;SDS011;50896;46.714;17.322;2023-11-21T06:12:52;15.57;;;10.73;;
64520;SDS011;50896;46.714;17.322;2023-11-21T06:15:20;13.82;;;10.65;;
64520;SDS011;50896;46.714;17.322;2023-11-21T06:17:48;17.33;;;11.57;;
64520;SDS011;50896;46.714;17.322;2023-11-21T06:20:21;18.00;;;10.90;;
64520;SDS011;50896;46.714;17.322;2023-11-21T06:22:50;14.77;;;10.23;;
64520;SDS011;50896;46.714;17.322;2023-11-21T06:25:17;14.15;;;9.13;;
64520;SDS011;50896;46.714;17.322;2023-11-21T06:27:45;8.27;;;6.38;;
64520;SDS011;50896;46.714;17.322;2023-11-21T06:30:14;9.20;;;5.45;;
64520;SDS011;50896;46.714;17.322;2023-11-21T06:32:42;9.45;;;5.00;;
64520;SDS011;50896;46.714;17.322;2023-11-21T06:35:13;7.10;;;4.32;;
64520;SDS011;50896;46.714;17.322;2023-11-21T06:37:43;7.45;;;5.03;;
64520;SDS011;50896;46.714;17.322;2023-11-21T06:40:16;7.50;;;4.88;;
64520;SDS011;50896;46.714;17.322;2023-11-21T06:42:47;8.98;;;5.20;;
64520;SDS011;50896;46.714;17.322;2023-11-21T06:45:15;8.80;;;5.07;;
64520;SDS011;50896;46.714;17.322;2023-11-21T06:47:43;7.28;;;4.35;;
64520;SDS011;50896;46.714;17.322;2023-11-21T06:50:10;9.30;;;4.93;;
64520;SDS011;50896;46.714;17.322;2023-11-21T06:52:37;8.38;;;5.43;;
64520;SDS011;50896;46.714;17.322;2023-11-21T06:55:05;15.77;;;8.57;;
64520;SDS011;50896;46.714;17.322;2023-11-21T06:57:35;11.10;;;7.47;;
64520;SDS011;50896;46.714;17.322;2023-11-21T07:00:02;6.95;;;3.72;;
64520;SDS011;50896;46.714;17.322;2023-11-21T07:02:30;5.07;;;3.20;;
64520;SDS011;50896;46.714;17.322;2023-11-21T07:04:57;7.40;;;3.63;;
64520;SDS011;50896;46.714;17.322;2023-11-21T07:07:23;9.15;;;3.55;;
64520;SDS011;50896;46.714;17.322;2023-11-21T07:09:50;7.10;;;4.05;;
64520;SDS011;50896;46.714;17.322;2023-11-21T07:12:18;7.25;;;3.85;;
64520;SDS011;50896;46.714;17.322;2023-11-21T07:14:45;6.80;;;4.40;;
64520;SDS011;50896;46.714;17.322;2023-11-21T07:17:12;9.27;;;4.30;;
64520;SDS011;50896;46.714;17.322;2023-11-21T07:19:39;12.10;;;7.15;;
64520;SDS011;50896;46.714;17.322;2023-11-21T07:22:06;27.02;;;16.60;;
64520;SDS011;50896;46.714;17.322;2023-11-21T07:24:33;10.05;;;6.20;;
64520;SDS011;50896;46.714;17.322;2023-11-21T07:27:00;12.45;;;6.40;;
64520;SDS011;50896;46.714;17.322;2023-11-21T07:29:27;10.98;;;7.75;;
64520;SDS011;50896;46.714;17.322;2023-11-21T07:31:56;8.10;;;4.40;;
64520;SDS011;50896;46.714;17.322;2023-11-21T07:34:23;6.40;;;3.20;;
64520;SDS011;50896;46.714;17.322;2023-11-21T07:36:50;6.78;;;3.28;;
64520;SDS011;50896;46.714;17.322;2023-11-21T07:39:17;4.82;;;3.05;;
64520;SDS011;50896;46.714;17.322;2023-11-21T07:41:44;9.13;;;3.55;;
64520;SDS011;50896;46.714;17.322;2023-11-21T07:44:18;6.07;;;3.40;;
64520;SDS011;50896;46.714;17.322;2023-11-21T07:46:46;5.32;;;3.00;;
64520;SDS011;50896;46.714;17.322;2023-11-21T07:49:14;5.93;;;2.80;;
64520;SDS011;50896;46.714;17.322;2023-11-21T07:51:47;6.70;;;3.80;;
64520;SDS011;50896;46.714;17.322;2023-11-21T07:54:14;6.60;;;3.25;;
64520;SDS011;50896;46.714;17.322;2023-11-21T07:56:42;7.15;;;2.70;;
64520;SDS011;50896;46.714;17.322;2023-11-21T07:59:09;6.35;;;3.13;;
64520;SDS011;50896;46.714;17.322;2023-11-21T08:01:36;5.25;;;3.28;;
64520;SDS011;50896;46.714;17.322;2023-11-21T08:04:03;7.75;;;2.83;;
64520;SDS011;50896;46.714;17.322;2023-11-21T08:06:31;3.85;;;2.40;;
64520;SDS011;50896;46.714;17.322;2023-11-21T08:08:58;5.32;;;2.33;;
64520;SDS011;50896;46.714;17.322;2023-11-21T08:11:25;3.67;;;2.42;;
64520;SDS011;50896;46.714;17.322;2023-11-21T08:13:58;4.40;;;2.25;;
64520;SDS011;50896;46.714;17.322;2023-11-21T08:16:25;6.53;;;2.45;;
64520;SDS011;50896;46.714;17.322;2023-11-21T08:18:52;4.15;;;2.63;;
64520;SDS011;50896;46.714;17.322;2023-11-21T08:21:20;7.85;;;4.93;;
64520;SDS011;50896;46.714;17.322;2023-11-21T08:23:47;8.88;;;4.88;;
64520;SDS011;50896;46.714;17.322;2023-11-21T08:26:20;8.93;;;4.80;;
64520;SDS011;50896;46.714;17.322;2023-11-21T08:28:50;6.45;;;3.80;;
64520;SDS011;50896;46.714;17.322;2023-11-21T08:31:25;9.05;;;6.10;;
64520;SDS011;50896;46.714;17.322;2023-11-21T08:33:53;9.90;;;6.25;;
64520;SDS011;50896;46.714;17.322;2023-11-21T08:36:22;9.73;;;6.03;;
64520;SDS011;50896;46.714;17.322;2023-11-21T08:38:52;8.70;;;5.60;;
64520;SDS011;50896;46.714;17.322;2023-11-21T08:41:19;9.98;;;5.35;;
64520;SDS011;50896;46.714;17.322;2023-11-21T08:43:49;9.23;;;5.32;;
64520;SDS011;50896;46.714;17.322;2023-11-21T08:46:17;9.35;;;5.20;;
64520;SDS011;50896;46.714;17.322;2023-11-21T08:48:44;9.68;;;5.07;;
64520;SDS011;50896;46.714;17.322;2023-11-21T08:51:11;10.18;;;4.78;;
64520;SDS011;50896;46.714;17.322;2023-11-21T08:53:38;7.82;;;4.32;;
64520;SDS011;50896;46.714;17.322;2023-11-21T08:56:05;6.88;;;4.63;;
64520;SDS011;50896;46.714;17.322;2023-11-21T08:58:33;10.30;;;4.80;;
64520;SDS011;50896;46.714;17.322;2023-11-21T09:01:00;10.32;;;4.40;;
64520;SDS011;50896;46.714;17.322;2023-11-21T09:03:27;9.13;;;4.13;;
64520;SDS011;50896;46.714;17.322;2023-11-21T09:05:55;6.53;;;3.83;;
64520;SDS011;50896;46.714;17.322;2023-11-21T09:08:22;7.93;;;4.15;;
64520;SDS011;50896;46.714;17.322;2023-11-21T09:10:49;6.97;;;3.58;;
64520;SDS011;50896;46.714;17.322;2023-11-21T09:13:17;7.55;;;4.00;;
64520;SDS011;50896;46.714;17.322;2023-11-21T09:15:44;5.55;;;3.63;;
64520;SDS011;50896;46.714;17.322;2023-11-21T09:18:13;6.75;;;3.95;;
64520;SDS011;50896;46.714;17.322;2023-11-21T09:20:40;7.95;;;4.50;;
64520;SDS011;50896;46.714;17.322;2023-11-21T09:25:37;7.53;;;3.88;;
64520;SDS011;50896;46.714;17.322;2023-11-21T09:28:05;8.30;;;4.30;;
64520;SDS011;50896;46.714;17.322;2023-11-21T09:30:35;9.27;;;4.68;;
64520;SDS011;50896;46.714;17.322;2023-11-21T09:33:02;7.13;;;4.40;;
64520;SDS011;50896;46.714;17.322;2023-11-21T09:35:34;10.23;;;3.58;;
64520;SDS011;50896;46.714;17.322;2023-11-21T09:38:01;5.97;;;3.55;;
64520;SDS011;50896;46.714;17.322;2023-11-21T09:40:32;7.30;;;3.60;;
64520;SDS011;50896;46.714;17.322;2023-11-21T09:42:59;5.43;;;3.92;;
64520;SDS011;50896;46.714;17.322;2023-11-21T09:45:32;8.50;;;3.70;;
64520;SDS011;50896;46.714;17.322;2023-11-21T09:48:01;10.18;;;3.83;;
64520;SDS011;50896;46.714;17.322;2023-11-21T09:50:29;6.60;;;3.97;;
64520;SDS011;50896;46.714;17.322;2023-11-21T09:55:28;6.07;;;3.55;;
64520;SDS011;50896;46.714;17.322;2023-11-21T09:57:56;7.07;;;4.28;;
64520;SDS011;50896;46.714;17.322;2023-11-21T10:00:23;4.90;;;3.20;;
64520;SDS011;50896;46.714;17.322;2023-11-21T10:02:50;6.47;;;3.80;;
64520;SDS011;50896;46.714;17.322;2023-11-21T10:05:19;9.45;;;5.13;;
64520;SDS011;50896;46.714;17.322;2023-11-21T10:07:52;18.00;;;9.23;;
64520;SDS011;50896;46.714;17.322;2023-11-21T10:10:24;11.50;;;6.10;;
64520;SDS011;50896;46.714;17.322;2023-11-21T10:12:53;8.75;;;4.93;;
64520;SDS011;50896;46.714;17.322;2023-11-21T10:15:23;11.55;;;6.07;;
64520;SDS011;50896;46.714;17.322;2023-11-21T10:17:54;12.68;;;8.82;;
64520;SDS011;50896;46.714;17.322;2023-11-21T10:20:24;19.65;;;12.20;;
64520;SDS011;50896;46.714;17.322;2023-11-21T10:22:52;17.23;;;10.45;;
64520;SDS011;50896;46.714;17.322;2023-11-21T10:25:19;10.20;;;6.53;;
64520;SDS011;50896;46.714;17.322;2023-11-21T10:27:48;9.07;;;6.40;;
64520;SDS011;50896;46.714;17.322;2023-11-21T10:30:18;7.72;;;5.60;;
64520;SDS011;50896;46.714;17.322;2023-11-21T10:32:45;9.27;;;6.25;;
64520;SDS011;50896;46.714;17.322;2023-11-21T10:35:13;11.05;;;5.40;;
64520;SDS011;50896;46.714;17.322;2023-11-21T10:37:40;8.70;;;4.78;;
64520;SDS011;50896;46.714;17.322;2023-11-21T10:40:08;7.55;;;4.18;;
64520;SDS011;50896;46.714;17.322;2023-11-21T10:42:40;7.88;;;5.00;;
64520;SDS011;50896;46.714;17.322;2023-11-21T10:45:08;7.85;;;4.03;;
64520;SDS011;50896;46.714;17.322;2023-11-21T10:47:41;7.68;;;4.40;;
64520;SDS011;50896;46.714;17.322;2023-11-21T10:50:09;8.10;;;4.35;;
64520;SDS011;50896;46.714;17.322;2023-11-21T10:52:41;5.63;;;3.80;;
64520;SDS011;50896;46.714;17.322;2023-11-21T10:55:19;6.43;;;3.83;;
64520;SDS011;50896;46.714;17.322;2023-11-21T10:57:48;5.70;;;3.90;;
64520;SDS011;50896;46.714;17.322;2023-11-21T11:00:17;7.82;;;3.90;;
64520;SDS011;50896;46.714;17.322;2023-11-21T11:02:53;9.95;;;4.10;;
64520;SDS011;50896;46.714;17.322;2023-11-21T11:05:22;7.47;;;3.60;;
64520;SDS011;50896;46.714;17.322;2023-11-21T11:07:50;8.77;;;3.78;;
64520;SDS011;50896;46.714;17.322;2023-11-21T11:10:26;7.47;;;3.33;;
64520;SDS011;50896;46.714;17.322;2023-11-21T11:12:56;4.65;;;3.60;;
64520;SDS011;50896;46.714;17.322;2023-11-21T11:15:25;6.43;;;3.72;;
64520;SDS011;50896;46.714;17.322;2023-11-21T11:17:54;4.93;;;3.95;;
64520;SDS011;50896;46.714;17.322;2023-11-21T11:20:27;6.15;;;3.90;;
64520;SDS011;50896;46.714;17.322;2023-11-21T11:26:09;6.90;;;3.90;;
64520;SDS011;50896;46.714;17.322;2023-11-21T11:29:14;6.50;;;3.88;;
64520;SDS011;50896;46.714;17.322;2023-11-21T11:32:00;6.50;;;4.00;;
64520;SDS011;50896;46.714;17.322;2023-11-21T11:34:36;7.93;;;3.60;;
64520;SDS011;50896;46.714;17.322;2023-11-21T11:37:26;9.20;;;3.92;;
64520;SDS011;50896;46.714;17.322;2023-11-21T11:39:54;6.30;;;3.50;;
64520;SDS011;50896;46.714;17.322;2023-11-21T11:42:21;6.07;;;3.17;;
64520;SDS011;50896;46.714;17.322;2023-11-21T11:44:51;4.93;;;3.10;;
64520;SDS011;50896;46.714;17.322;2023-11-21T11:47:20;5.05;;;3.35;;
64520;SDS011;50896;46.714;17.322;2023-11-21T11:52:37;7.32;;;3.35;;
64520;SDS011;50896;46.714;17.322;2023-11-21T11:55:10;6.70;;;3.30;;
64520;SDS011;50896;46.714;17.322;2023-11-21T11:57:40;5.10;;;2.78;;
64520;SDS011;50896;46.714;17.322;2023-11-21T12:02:44;5.80;;;3.00;;
64520;SDS011;50896;46.714;17.322;2023-11-21T12:05:12;3.78;;;3.28;;
64520;SDS011;50896;46.714;17.322;2023-11-21T12:07:47;5.78;;;4.10;;
64520;SDS011;50896;46.714;17.322;2023-11-21T12:10:18;7.18;;;3.97;;
64520;SDS011;50896;46.714;17.322;2023-11-21T12:12:46;8.85;;;4.05;;
64520;SDS011;50896;46.714;17.322;2023-11-21T12:15:15;6.07;;;4.50;;
64520;SDS011;50896;46.714;17.322;2023-11-21T12:17:43;6.97;;;4.30;;
64520;SDS011;50896;46.714;17.322;2023-11-21T12:20:13;9.55;;;5.07;;
64520;SDS011;50896;46.714;17.322;2023-11-21T12:22:42;6.63;;;4.78;;
64520;SDS011;50896;46.714;17.322;2023-11-21T12:25:10;8.23;;;5.00;;
64520;SDS011;50896;46.714;17.322;2023-11-21T12:27:42;8.15;;;4.90;;
64520;SDS011;50896;46.714;17.322;2023-11-21T12:30:12;7.82;;;3.95;;
64520;SDS011;50896;46.714;17.322;2023-11-21T12:32:43;6.93;;;3.80;;
64520;SDS011;50896;46.714;17.322;2023-11-21T12:35:12;7.38;;;3.58;;
64520;SDS011;50896;46.714;17.322;2023-11-21T12:37:40;6.45;;;3.55;;
64520;SDS011;50896;46.714;17.322;2023-11-21T12:40:09;6.65;;;3.70;;
64520;SDS011;50896;46.714;17.322;2023-11-21T12:42:42;7.90;;;3.92;;
64520;SDS011;50896;46.714;17.322;2023-11-21T12:45:18;11.48;;;5.20;;
64520;SDS011;50896;46.714;17.322;2023-11-21T12:47:55;8.65;;;4.78;;
64520;SDS011;50896;46.714;17.322;2023-11-21T12:50:29;7.32;;;4.03;;
64520;SDS011;50896;46.714;17.322;2023-11-21T12:53:03;7.40;;;4.20;;
64520;SDS011;50896;46.714;17.322;2023-11-21T12:55:32;4.68;;;3.70;;
64520;SDS011;50896;46.714;17.322;2023-11-21T12:58:06;6.07;;;3.70;;
64520;SDS011;50896;46.714;17.322;2023-11-21T13:00:42;9.50;;;3.67;;
64520;SDS011;50896;46.714;17.322;2023-11-21T13:03:12;8.20;;;3.78;;
64520;SDS011;50896;46.714;17.322;2023-11-21T13:05:47;6.35;;;3.70;;
64520;SDS011;50896;46.714;17.322;2023-11-21T13:08:19;7.28;;;3.00;;
64520;SDS011;50896;46.714;17.322;2023-11-21T13:10:50;8.15;;;3.40;;
64520;SDS011;50896;46.714;17.322;2023-11-21T13:13:22;7.80;;;3.25;;
64520;SDS011;50896;46.714;17.322;2023-11-21T13:15:51;7.60;;;4.03;;
64520;SDS011;50896;46.714;17.322;2023-11-21T13:18:27;8.32;;;5.25;;
64520;SDS011;50896;46.714;17.322;2023-11-21T13:20:56;9.95;;;5.20;;
64520;SDS011;50896;46.714;17.322;2023-11-21T13:23:25;7.63;;;4.60;;
64520;SDS011;50896;46.714;17.322;2023-11-21T13:25:53;9.63;;;4.57;;
64520;SDS011;50896;46.714;17.322;2023-11-21T13:28:31;7.07;;;4.65;;
64520;SDS011;50896;46.714;17.322;2023-11-21T13:31:00;9.52;;;6.05;;
64520;SDS011;50896;46.714;17.322;2023-11-21T13:33:31;12.90;;;6.82;;
64520;SDS011;50896;46.714;17.322;2023-11-21T13:35:59;12.65;;;6.70;;
64520;SDS011;50896;46.714;17.322;2023-11-21T13:38:28;12.15;;;7.00;;
64520;SDS011;50896;46.714;17.322;2023-11-21T13:40:59;11.80;;;7.15;;
64520;SDS011;50896;46.714;17.322;2023-11-21T13:43:26;12.13;;;7.07;;
64520;SDS011;50896;46.714;17.322;2023-11-21T13:45:55;12.77;;;6.83;;
64520;SDS011;50896;46.714;17.322;2023-11-21T13:48:27;13.70;;;7.05;;
64520;SDS011;50896;46.714;17.322;2023-11-21T13:51:17;12.65;;;6.57;;
64520;SDS011;50896;46.714;17.322;2023-11-21T13:53:45;12.90;;;7.60;;
64520;SDS011;50896;46.714;17.322;2023-11-21T13:56:17;11.90;;;6.40;;
64520;SDS011;50896;46.714;17.322;2023-11-21T13:58:51;12.45;;;6.70;;
64520;SDS011;50896;46.714;17.322;2023-11-21T14:01:23;9.85;;;6.15;;
64520;SDS011;50896;46.714;17.322;2023-11-21T14:04:02;12.20;;;7.10;;
64520;SDS011;50896;46.714;17.322;2023-11-21T14:06:43;9.23;;;6.70;;
64520;SDS011;50896;46.714;17.322;2023-11-21T14:09:21;11.27;;;6.82;;
64520;SDS011;50896;46.714;17.322;2023-11-21T14:11:53;10.68;;;7.32;;
64520;SDS011;50896;46.714;17.322;2023-11-21T14:14:24;10.43;;;7.80;;
64520;SDS011;50896;46.714;17.322;2023-11-21T14:16:54;11.27;;;7.00;;
64520;SDS011;50896;46.714;17.322;2023-11-21T14:19:22;14.27;;;7.82;;
64520;SDS011;50896;46.714;17.322;2023-11-21T14:21:54;15.88;;;8.98;;
64520;SDS011;50896;46.714;17.322;2023-11-21T14:24:21;16.30;;;8.43;;
64520;SDS011;50896;46.714;17.322;2023-11-21T14:26:50;14.33;;;9.33;;
64520;SDS011;50896;46.714;17.322;2023-11-21T14:29:18;18.30;;;11.38;;
64520;SDS011;50896;46.714;17.322;2023-11-21T14:31:50;19.90;;;13.68;;
64520;SDS011;50896;46.714;17.322;2023-11-21T14:34:20;21.48;;;15.05;;
64520;SDS011;50896;46.714;17.322;2023-11-21T14:36:52;21.63;;;15.10;;
64520;SDS011;50896;46.714;17.322;2023-11-21T14:39:18;24.38;;;14.18;;
64520;SDS011;50896;46.714;17.322;2023-11-21T14:41:54;17.08;;;12.82;;
64520;SDS011;50896;46.714;17.322;2023-11-21T14:44:26;20.65;;;12.23;;
64520;SDS011;50896;46.714;17.322;2023-11-21T14:46:59;17.17;;;11.40;;
64520;SDS011;50896;46.714;17.322;2023-11-21T14:49:27;17.08;;;10.75;;
64520;SDS011;50896;46.714;17.322;2023-11-21T14:52:02;16.95;;;11.45;;